sensor_id;sensor_type;location;lat;lon;timestamp;temperature;humidity
5009;DHT22;2523;51.058;6.922;2023-06-24T00:01:14;19.90;99.90
5009;DHT22;2523;51.058;6.922;2023-06-24T00:03:40;19.90;99.90
5009;DHT22;2523;51.058;6.922;2023-06-24T00:06:06;19.80;99.90
5009;DHT22;2523;51.058;6.922;2023-06-24T00:08:32;19.90;99.90
5009;DHT22;2523;51.058;6.922;2023-06-24T00:11:02;19.90;99.90
5009;DHT22;2523;51.058;6.922;2023-06-24T00:13:28;19.90;99.90
5009;DHT22;2523;51.058;6.922;2023-06-24T00:15:56;19.90;99.90
5009;DHT22;2523;51.058;6.922;2023-06-24T00:18:22;19.90;99.90
5009;DHT22;2523;51.058;6.922;2023-06-24T00:20:50;19.90;99.90
5009;DHT22;2523;51.058;6.922;2023-06-24T00:23:17;19.80;99.90
5009;DHT22;2523;51.058;6.922;2023-06-24T00:25:50;19.70;99.90
5009;DHT22;2523;51.058;6.922;2023-06-24T00:28:16;19.70;99.90
5009;DHT22;2523;51.058;6.922;2023-06-24T00:30:41;19.60;99.90
5009;DHT22;2523;51.058;6.922;2023-06-24T00:33:07;19.60;99.90
5009;DHT22;2523;51.058;6.922;2023-06-24T00:35:34;19.60;99.90
5009;DHT22;2523;51.058;6.922;2023-06-24T00:38:00;19.50;99.90
5009;DHT22;2523;51.058;6.922;2023-06-24T00:40:25;19.50;99.90
5009;DHT22;2523;51.058;6.922;2023-06-24T00:42:51;19.60;99.90
5009;DHT22;2523;51.058;6.922;2023-06-24T00:45:17;19.50;99.90
5009;DHT22;2523;51.058;6.922;2023-06-24T00:47:43;19.50;99.90
5009;DHT22;2523;51.058;6.922;2023-06-24T00:50:09;19.50;99.90
5009;DHT22;2523;51.058;6.922;2023-06-24T00:52:37;19.50;99.90
5009;DHT22;2523;51.058;6.922;2023-06-24T00:55:11;19.50;99.90
5009;DHT22;2523;51.058;6.922;2023-06-24T00:57:39;19.40;99.90
5009;DHT22;2523;51.058;6.922;2023-06-24T01:00:05;19.40;99.90
5009;DHT22;2523;51.058;6.922;2023-06-24T01:02:42;19.30;99.90
5009;DHT22;2523;51.058;6.922;2023-06-24T01:05:11;19.30;99.90
5009;DHT22;2523;51.058;6.922;2023-06-24T01:07:38;19.30;99.90
5009;DHT22;2523;51.058;6.922;2023-06-24T01:10:04;19.30;99.90
5009;DHT22;2523;51.058;6.922;2023-06-24T01:12:32;19.30;99.90
5009;DHT22;2523;51.058;6.922;2023-06-24T01:14:58;19.20;99.90
5009;DHT22;2523;51.058;6.922;2023-06-24T01:17:31;19.20;99.90
5009;DHT22;2523;51.058;6.922;2023-06-24T01:20:11;19.20;99.90
5009;DHT22;2523;51.058;6.922;2023-06-24T01:32:55;19.20;99.90
5009;DHT22;2523;51.058;6.922;2023-06-24T01:35:25;19.20;99.90
5009;DHT22;2523;51.058;6.922;2023-06-24T01:37:55;19.20;99.90
5009;DHT22;2523;51.058;6.922;2023-06-24T01:40:28;19.10;99.90
5009;DHT22;2523;51.058;6.922;2023-06-24T01:42:58;19.10;99.90
5009;DHT22;2523;51.058;6.922;2023-06-24T01:45:26;19.10;99.90
5009;DHT22;2523;51.058;6.922;2023-06-24T01:48:02;19.00;99.90
5009;DHT22;2523;51.058;6.922;2023-06-24T01:50:31;19.00;99.90
5009;DHT22;2523;51.058;6.922;2023-06-24T01:52:57;19.00;99.90
5009;DHT22;2523;51.058;6.922;2023-06-24T01:55:24;19.00;99.90
5009;DHT22;2523;51.058;6.922;2023-06-24T01:57:52;19.00;99.90
5009;DHT22;2523;51.058;6.922;2023-06-24T02:00:21;19.00;99.90
5009;DHT22;2523;51.058;6.922;2023-06-24T02:02:49;18.90;99.90
5009;DHT22;2523;51.058;6.922;2023-06-24T02:05:17;18.90;99.90
5009;DHT22;2523;51.058;6.922;2023-06-24T02:07:45;18.90;99.90
5009;DHT22;2523;51.058;6.922;2023-06-24T02:10:12;18.90;99.90
5009;DHT22;2523;51.058;6.922;2023-06-24T02:12:39;18.80;99.90
5009;DHT22;2523;51.058;6.922;2023-06-24T02:15:06;18.80;99.90
5009;DHT22;2523;51.058;6.922;2023-06-24T02:17:33;18.80;99.90
5009;DHT22;2523;51.058;6.922;2023-06-24T02:20:00;18.70;99.90
5009;DHT22;2523;51.058;6.922;2023-06-24T02:22:27;18.70;99.90
5009;DHT22;2523;51.058;6.922;2023-06-24T02:24:53;18.70;99.90
5009;DHT22;2523;51.058;6.922;2023-06-24T02:27:20;18.70;99.90
5009;DHT22;2523;51.058;6.922;2023-06-24T02:29:46;18.70;99.90
5009;DHT22;2523;51.058;6.922;2023-06-24T02:32:12;18.80;99.90
5009;DHT22;2523;51.058;6.922;2023-06-24T02:34:39;18.90;99.90
5009;DHT22;2523;51.058;6.922;2023-06-24T02:37:05;18.90;99.90
5009;DHT22;2523;51.058;6.922;2023-06-24T02:39:30;18.80;99.90
5009;DHT22;2523;51.058;6.922;2023-06-24T02:41:56;18.80;99.90
5009;DHT22;2523;51.058;6.922;2023-06-24T02:44:21;18.70;99.90
5009;DHT22;2523;51.058;6.922;2023-06-24T02:46:48;18.60;99.90
5009;DHT22;2523;51.058;6.922;2023-06-24T02:49:16;18.60;99.90
5009;DHT22;2523;51.058;6.922;2023-06-24T02:51:43;18.60;99.90
5009;DHT22;2523;51.058;6.922;2023-06-24T02:54:09;18.50;99.90
5009;DHT22;2523;51.058;6.922;2023-06-24T02:56:35;18.40;99.90
5009;DHT22;2523;51.058;6.922;2023-06-24T02:59:01;18.40;99.90
5009;DHT22;2523;51.058;6.922;2023-06-24T03:01:27;18.40;99.90
5009;DHT22;2523;51.058;6.922;2023-06-24T03:03:54;18.40;99.90
5009;DHT22;2523;51.058;6.922;2023-06-24T03:06:21;18.40;99.90
5009;DHT22;2523;51.058;6.922;2023-06-24T03:08:50;18.30;99.90
5009;DHT22;2523;51.058;6.922;2023-06-24T03:11:16;18.30;99.90
5009;DHT22;2523;51.058;6.922;2023-06-24T03:13:43;18.30;99.90
5009;DHT22;2523;51.058;6.922;2023-06-24T03:16:09;18.30;99.90
5009;DHT22;2523;51.058;6.922;2023-06-24T03:18:41;18.40;99.90
5009;DHT22;2523;51.058;6.922;2023-06-24T03:21:08;18.40;99.90
5009;DHT22;2523;51.058;6.922;2023-06-24T03:23:34;18.30;99.90
5009;DHT22;2523;51.058;6.922;2023-06-24T03:26:00;18.30;99.90
5009;DHT22;2523;51.058;6.922;2023-06-24T03:28:25;18.30;99.90
5009;DHT22;2523;51.058;6.922;2023-06-24T03:30:51;18.30;99.90
5009;DHT22;2523;51.058;6.922;2023-06-24T03:33:17;18.20;99.90
5009;DHT22;2523;51.058;6.922;2023-06-24T03:35:43;18.20;99.90
5009;DHT22;2523;51.058;6.922;2023-06-24T03:38:09;18.20;99.90
5009;DHT22;2523;51.058;6.922;2023-06-24T03:40:34;18.20;99.90
5009;DHT22;2523;51.058;6.922;2023-06-24T03:43:00;18.20;99.90
5009;DHT22;2523;51.058;6.922;2023-06-24T03:45:25;18.20;99.90
5009;DHT22;2523;51.058;6.922;2023-06-24T03:47:51;18.20;99.90
5009;DHT22;2523;51.058;6.922;2023-06-24T03:50:17;18.30;99.90
5009;DHT22;2523;51.058;6.922;2023-06-24T03:52:42;18.30;99.90
5009;DHT22;2523;51.058;6.922;2023-06-24T03:55:10;18.20;99.90
5009;DHT22;2523;51.058;6.922;2023-06-24T03:57:36;18.20;99.90
5009;DHT22;2523;51.058;6.922;2023-06-24T04:00:02;18.20;99.90
5009;DHT22;2523;51.058;6.922;2023-06-24T04:02:37;18.30;99.90
5009;DHT22;2523;51.058;6.922;2023-06-24T04:05:03;18.30;99.90
5009;DHT22;2523;51.058;6.922;2023-06-24T04:07:31;18.30;99.90
5009;DHT22;2523;51.058;6.922;2023-06-24T04:09:57;18.30;99.90
5009;DHT22;2523;51.058;6.922;2023-06-24T04:12:23;18.40;99.90
5009;DHT22;2523;51.058;6.922;2023-06-24T04:14:48;18.40;99.90
5009;DHT22;2523;51.058;6.922;2023-06-24T04:17:14;18.40;99.90
5009;DHT22;2523;51.058;6.922;2023-06-24T04:19:40;18.40;99.90
5009;DHT22;2523;51.058;6.922;2023-06-24T04:22:06;18.40;99.90
5009;DHT22;2523;51.058;6.922;2023-06-24T04:24:31;18.50;99.90
5009;DHT22;2523;51.058;6.922;2023-06-24T04:26:58;18.50;99.90
5009;DHT22;2523;51.058;6.922;2023-06-24T04:29:23;18.50;99.90
5009;DHT22;2523;51.058;6.922;2023-06-24T04:31:49;18.50;99.90
5009;DHT22;2523;51.058;6.922;2023-06-24T04:34:14;18.60;99.90
5009;DHT22;2523;51.058;6.922;2023-06-24T04:36:40;18.60;99.90
5009;DHT22;2523;51.058;6.922;2023-06-24T04:39:06;18.70;99.90
5009;DHT22;2523;51.058;6.922;2023-06-24T04:41:31;18.70;99.90
5009;DHT22;2523;51.058;6.922;2023-06-24T04:43:57;18.80;99.90
5009;DHT22;2523;51.058;6.922;2023-06-24T04:46:23;18.70;99.90
5009;DHT22;2523;51.058;6.922;2023-06-24T04:48:49;18.80;99.90
5009;DHT22;2523;51.058;6.922;2023-06-24T04:51:15;18.70;99.90
5009;DHT22;2523;51.058;6.922;2023-06-24T04:53:40;18.80;99.90
5009;DHT22;2523;51.058;6.922;2023-06-24T04:56:06;18.90;99.90
5009;DHT22;2523;51.058;6.922;2023-06-24T04:58:32;18.90;99.90
5009;DHT22;2523;51.058;6.922;2023-06-24T05:00:57;19.00;99.90
5009;DHT22;2523;51.058;6.922;2023-06-24T05:03:24;19.00;99.90
5009;DHT22;2523;51.058;6.922;2023-06-24T05:05:49;19.00;99.90
5009;DHT22;2523;51.058;6.922;2023-06-24T05:08:15;19.00;99.90
5009;DHT22;2523;51.058;6.922;2023-06-24T05:10:40;19.00;99.90
5009;DHT22;2523;51.058;6.922;2023-06-24T05:13:06;19.00;99.90
5009;DHT22;2523;51.058;6.922;2023-06-24T05:15:31;19.00;99.90
5009;DHT22;2523;51.058;6.922;2023-06-24T05:17:57;19.10;99.90
5009;DHT22;2523;51.058;6.922;2023-06-24T05:20:22;19.10;99.90
5009;DHT22;2523;51.058;6.922;2023-06-24T05:22:48;19.10;99.90
5009;DHT22;2523;51.058;6.922;2023-06-24T05:25:13;19.10;99.90
5009;DHT22;2523;51.058;6.922;2023-06-24T05:27:40;19.30;99.90
5009;DHT22;2523;51.058;6.922;2023-06-24T05:30:06;19.40;99.90
5009;DHT22;2523;51.058;6.922;2023-06-24T05:32:32;19.30;99.90
5009;DHT22;2523;51.058;6.922;2023-06-24T05:34:57;19.40;99.90
5009;DHT22;2523;51.058;6.922;2023-06-24T05:37:23;19.40;99.90
5009;DHT22;2523;51.058;6.922;2023-06-24T05:39:48;19.40;99.90
5009;DHT22;2523;51.058;6.922;2023-06-24T05:42:14;19.40;99.90
5009;DHT22;2523;51.058;6.922;2023-06-24T05:44:39;19.40;99.90
5009;DHT22;2523;51.058;6.922;2023-06-24T05:47:05;19.50;99.90
5009;DHT22;2523;51.058;6.922;2023-06-24T05:49:30;19.50;99.90
5009;DHT22;2523;51.058;6.922;2023-06-24T05:51:56;19.60;99.90
5009;DHT22;2523;51.058;6.922;2023-06-24T05:54:22;19.40;99.90
5009;DHT22;2523;51.058;6.922;2023-06-24T05:56:48;19.60;99.90
5009;DHT22;2523;51.058;6.922;2023-06-24T05:59:14;19.70;99.90
5009;DHT22;2523;51.058;6.922;2023-06-24T06:01:39;19.70;99.90
5009;DHT22;2523;51.058;6.922;2023-06-24T06:04:05;19.60;99.90
5009;DHT22;2523;51.058;6.922;2023-06-24T06:06:30;19.70;99.90
5009;DHT22;2523;51.058;6.922;2023-06-24T06:08:56;19.80;99.90
5009;DHT22;2523;51.058;6.922;2023-06-24T06:11:22;19.90;99.90
5009;DHT22;2523;51.058;6.922;2023-06-24T06:13:47;19.90;99.90
5009;DHT22;2523;51.058;6.922;2023-06-24T06:16:13;20.00;99.90
5009;DHT22;2523;51.058;6.922;2023-06-24T06:18:39;20.10;99.90
5009;DHT22;2523;51.058;6.922;2023-06-24T06:21:05;20.10;99.90
5009;DHT22;2523;51.058;6.922;2023-06-24T06:23:30;20.30;99.90
5009;DHT22;2523;51.058;6.922;2023-06-24T06:25:56;20.40;99.90
5009;DHT22;2523;51.058;6.922;2023-06-24T06:28:22;20.30;99.90
5009;DHT22;2523;51.058;6.922;2023-06-24T06:30:47;20.40;99.90
5009;DHT22;2523;51.058;6.922;2023-06-24T06:33:13;20.40;99.90
5009;DHT22;2523;51.058;6.922;2023-06-24T06:35:38;20.50;99.90
5009;DHT22;2523;51.058;6.922;2023-06-24T06:38:05;20.60;99.90
5009;DHT22;2523;51.058;6.922;2023-06-24T06:40:30;20.70;99.90
5009;DHT22;2523;51.058;6.922;2023-06-24T06:42:56;20.90;99.90
5009;DHT22;2523;51.058;6.922;2023-06-24T06:45:28;20.80;99.90
5009;DHT22;2523;51.058;6.922;2023-06-24T06:47:53;21.00;99.90
5009;DHT22;2523;51.058;6.922;2023-06-24T06:50:19;21.10;99.90
5009;DHT22;2523;51.058;6.922;2023-06-24T06:52:44;21.10;99.90
5009;DHT22;2523;51.058;6.922;2023-06-24T06:55:10;21.20;99.90
5009;DHT22;2523;51.058;6.922;2023-06-24T06:57:36;21.30;99.90
5009;DHT22;2523;51.058;6.922;2023-06-24T07:00:02;21.30;99.90
5009;DHT22;2523;51.058;6.922;2023-06-24T07:02:27;21.40;99.90
5009;DHT22;2523;51.058;6.922;2023-06-24T07:04:53;21.60;99.90
5009;DHT22;2523;51.058;6.922;2023-06-24T07:07:18;21.70;99.90
5009;DHT22;2523;51.058;6.922;2023-06-24T07:09:44;21.80;99.90
5009;DHT22;2523;51.058;6.922;2023-06-24T07:12:11;21.70;99.90
5009;DHT22;2523;51.058;6.922;2023-06-24T07:14:38;21.70;99.90
5009;DHT22;2523;51.058;6.922;2023-06-24T07:17:04;21.90;99.90
5009;DHT22;2523;51.058;6.922;2023-06-24T07:19:30;21.90;99.90
5009;DHT22;2523;51.058;6.922;2023-06-24T07:21:55;21.90;99.90
5009;DHT22;2523;51.058;6.922;2023-06-24T07:24:21;21.90;99.90
5009;DHT22;2523;51.058;6.922;2023-06-24T07:26:46;21.90;99.90
5009;DHT22;2523;51.058;6.922;2023-06-24T07:29:12;22.00;99.90
5009;DHT22;2523;51.058;6.922;2023-06-24T07:31:37;22.10;99.90
5009;DHT22;2523;51.058;6.922;2023-06-24T07:34:04;22.00;99.90
5009;DHT22;2523;51.058;6.922;2023-06-24T07:36:30;21.90;99.90
5009;DHT22;2523;51.058;6.922;2023-06-24T07:38:55;21.90;99.90
5009;DHT22;2523;51.058;6.922;2023-06-24T07:41:21;21.90;99.90
5009;DHT22;2523;51.058;6.922;2023-06-24T07:43:47;21.90;99.90
5009;DHT22;2523;51.058;6.922;2023-06-24T07:46:12;22.00;99.90
5009;DHT22;2523;51.058;6.922;2023-06-24T07:48:38;22.20;99.90
5009;DHT22;2523;51.058;6.922;2023-06-24T07:51:03;22.30;99.90
5009;DHT22;2523;51.058;6.922;2023-06-24T07:53:30;22.30;99.90
5009;DHT22;2523;51.058;6.922;2023-06-24T07:55:55;22.50;99.90
5009;DHT22;2523;51.058;6.922;2023-06-24T07:58:21;22.60;99.90
5009;DHT22;2523;51.058;6.922;2023-06-24T08:00:46;22.80;99.90
5009;DHT22;2523;51.058;6.922;2023-06-24T08:03:13;23.00;99.90
5009;DHT22;2523;51.058;6.922;2023-06-24T08:05:38;23.10;99.90
5009;DHT22;2523;51.058;6.922;2023-06-24T08:08:05;23.10;99.90
5009;DHT22;2523;51.058;6.922;2023-06-24T08:10:31;23.20;99.90
5009;DHT22;2523;51.058;6.922;2023-06-24T08:12:56;23.20;99.90
5009;DHT22;2523;51.058;6.922;2023-06-24T08:15:22;23.20;99.90
5009;DHT22;2523;51.058;6.922;2023-06-24T08:17:52;23.30;99.90
5009;DHT22;2523;51.058;6.922;2023-06-24T08:20:19;23.30;99.90
5009;DHT22;2523;51.058;6.922;2023-06-24T08:22:45;23.40;99.90
5009;DHT22;2523;51.058;6.922;2023-06-24T08:25:10;23.50;99.90
5009;DHT22;2523;51.058;6.922;2023-06-24T08:27:36;23.30;99.90
5009;DHT22;2523;51.058;6.922;2023-06-24T08:30:06;23.20;99.90
5009;DHT22;2523;51.058;6.922;2023-06-24T08:32:32;23.40;99.90
5009;DHT22;2523;51.058;6.922;2023-06-24T08:34:58;23.60;99.90
5009;DHT22;2523;51.058;6.922;2023-06-24T08:37:23;23.70;99.90
5009;DHT22;2523;51.058;6.922;2023-06-24T08:39:49;23.80;99.90
5009;DHT22;2523;51.058;6.922;2023-06-24T08:42:15;23.80;99.90
5009;DHT22;2523;51.058;6.922;2023-06-24T08:44:40;23.80;99.90
5009;DHT22;2523;51.058;6.922;2023-06-24T08:47:06;23.90;99.90
5009;DHT22;2523;51.058;6.922;2023-06-24T08:49:32;23.90;99.90
5009;DHT22;2523;51.058;6.922;2023-06-24T08:52:17;24.00;99.90
5009;DHT22;2523;51.058;6.922;2023-06-24T08:54:46;24.10;99.90
5009;DHT22;2523;51.058;6.922;2023-06-24T08:57:14;24.30;99.90
5009;DHT22;2523;51.058;6.922;2023-06-24T08:59:41;24.40;99.90
5009;DHT22;2523;51.058;6.922;2023-06-24T09:02:07;24.50;99.90
5009;DHT22;2523;51.058;6.922;2023-06-24T09:04:33;24.50;99.90
5009;DHT22;2523;51.058;6.922;2023-06-24T09:06:59;24.60;99.90
5009;DHT22;2523;51.058;6.922;2023-06-24T09:09:24;24.70;99.90
5009;DHT22;2523;51.058;6.922;2023-06-24T09:12:01;24.90;99.90
5009;DHT22;2523;51.058;6.922;2023-06-24T09:14:29;24.90;99.90
5009;DHT22;2523;51.058;6.922;2023-06-24T09:16:59;24.80;99.90
5009;DHT22;2523;51.058;6.922;2023-06-24T09:19:28;24.90;99.90
5009;DHT22;2523;51.058;6.922;2023-06-24T09:21:55;25.00;99.90
5009;DHT22;2523;51.058;6.922;2023-06-24T09:24:21;25.00;99.90
5009;DHT22;2523;51.058;6.922;2023-06-24T09:26:47;25.10;99.90
5009;DHT22;2523;51.058;6.922;2023-06-24T09:29:15;25.30;99.90
5009;DHT22;2523;51.058;6.922;2023-06-24T09:31:50;25.20;99.90
5009;DHT22;2523;51.058;6.922;2023-06-24T09:34:19;25.30;99.90
5009;DHT22;2523;51.058;6.922;2023-06-24T09:36:46;25.50;99.90
5009;DHT22;2523;51.058;6.922;2023-06-24T09:39:16;25.60;99.90
5009;DHT22;2523;51.058;6.922;2023-06-24T09:41:42;25.50;99.90
5009;DHT22;2523;51.058;6.922;2023-06-24T09:44:11;25.60;99.90
5009;DHT22;2523;51.058;6.922;2023-06-24T09:46:37;25.70;99.90
5009;DHT22;2523;51.058;6.922;2023-06-24T09:49:06;25.90;99.90
5009;DHT22;2523;51.058;6.922;2023-06-24T09:51:43;25.70;99.90
5009;DHT22;2523;51.058;6.922;2023-06-24T09:54:12;25.80;99.90
5009;DHT22;2523;51.058;6.922;2023-06-24T09:56:42;26.00;99.90
5009;DHT22;2523;51.058;6.922;2023-06-24T09:59:09;26.10;99.90
5009;DHT22;2523;51.058;6.922;2023-06-24T10:01:38;26.20;99.90
5009;DHT22;2523;51.058;6.922;2023-06-24T10:04:06;26.30;99.90
5009;DHT22;2523;51.058;6.922;2023-06-24T10:06:33;26.40;99.90
5009;DHT22;2523;51.058;6.922;2023-06-24T10:08:59;26.50;99.20
5009;DHT22;2523;51.058;6.922;2023-06-24T10:11:25;26.50;99.90
5009;DHT22;2523;51.058;6.922;2023-06-24T10:13:52;26.50;99.90
5009;DHT22;2523;51.058;6.922;2023-06-24T10:16:17;26.60;99.90
5009;DHT22;2523;51.058;6.922;2023-06-24T10:18:44;26.70;99.90
5009;DHT22;2523;51.058;6.922;2023-06-24T10:21:10;26.60;91.70
5009;DHT22;2523;51.058;6.922;2023-06-24T10:26:28;26.90;71.70
5009;DHT22;2523;51.058;6.922;2023-06-24T10:37:03;27.20;64.50
5009;DHT22;2523;51.058;6.922;2023-06-24T10:39:52;27.30;46.10
5009;DHT22;2523;51.058;6.922;2023-06-24T10:42:25;27.50;46.90
5009;DHT22;2523;51.058;6.922;2023-06-24T10:44:52;27.70;39.50
5009;DHT22;2523;51.058;6.922;2023-06-24T10:47:18;27.80;35.20
5009;DHT22;2523;51.058;6.922;2023-06-24T10:49:45;27.80;38.40
5009;DHT22;2523;51.058;6.922;2023-06-24T10:52:11;27.70;33.20
5009;DHT22;2523;51.058;6.922;2023-06-24T10:54:41;27.70;31.70
5009;DHT22;2523;51.058;6.922;2023-06-24T10:57:07;27.90;28.50
5009;DHT22;2523;51.058;6.922;2023-06-24T10:59:53;27.90;29.50
5009;DHT22;2523;51.058;6.922;2023-06-24T11:02:26;28.00;28.50
5009;DHT22;2523;51.058;6.922;2023-06-24T11:04:57;28.10;30.00
5009;DHT22;2523;51.058;6.922;2023-06-24T11:07:24;28.20;27.20
5009;DHT22;2523;51.058;6.922;2023-06-24T11:09:54;28.40;24.10
5009;DHT22;2523;51.058;6.922;2023-06-24T11:12:25;28.60;22.40
5009;DHT22;2523;51.058;6.922;2023-06-24T11:14:52;28.50;19.60
5009;DHT22;2523;51.058;6.922;2023-06-24T11:17:20;28.50;20.50
5009;DHT22;2523;51.058;6.922;2023-06-24T11:19:46;28.50;21.90
5009;DHT22;2523;51.058;6.922;2023-06-24T11:22:11;28.70;18.70
5009;DHT22;2523;51.058;6.922;2023-06-24T11:24:37;28.90;17.70
5009;DHT22;2523;51.058;6.922;2023-06-24T11:27:05;28.90;15.90
5009;DHT22;2523;51.058;6.922;2023-06-24T11:29:31;29.10;15.80
5009;DHT22;2523;51.058;6.922;2023-06-24T11:31:57;29.10;17.00
5009;DHT22;2523;51.058;6.922;2023-06-24T11:34:23;29.10;15.50
5009;DHT22;2523;51.058;6.922;2023-06-24T11:36:48;28.80;12.40
5009;DHT22;2523;51.058;6.922;2023-06-24T11:39:25;29.10;14.30
5009;DHT22;2523;51.058;6.922;2023-06-24T11:41:52;29.20;14.90
5009;DHT22;2523;51.058;6.922;2023-06-24T11:44:21;29.20;16.40
5009;DHT22;2523;51.058;6.922;2023-06-24T11:46:48;29.30;16.20
5009;DHT22;2523;51.058;6.922;2023-06-24T11:49:15;29.20;17.90
5009;DHT22;2523;51.058;6.922;2023-06-24T11:51:50;29.40;17.70
5009;DHT22;2523;51.058;6.922;2023-06-24T11:54:19;29.50;16.40
5009;DHT22;2523;51.058;6.922;2023-06-24T11:56:50;29.70;17.10
5009;DHT22;2523;51.058;6.922;2023-06-24T11:59:23;29.90;15.40
5009;DHT22;2523;51.058;6.922;2023-06-24T12:01:58;30.00;15.90
5009;DHT22;2523;51.058;6.922;2023-06-24T12:04:30;30.00;17.20
5009;DHT22;2523;51.058;6.922;2023-06-24T12:06:57;29.90;15.00
5009;DHT22;2523;51.058;6.922;2023-06-24T12:09:23;30.10;15.80
5009;DHT22;2523;51.058;6.922;2023-06-24T12:11:50;30.20;15.60
5009;DHT22;2523;51.058;6.922;2023-06-24T12:14:15;30.40;15.60
5009;DHT22;2523;51.058;6.922;2023-06-24T12:16:41;30.70;14.70
5009;DHT22;2523;51.058;6.922;2023-06-24T12:19:07;30.90;15.20
5009;DHT22;2523;51.058;6.922;2023-06-24T12:21:34;30.80;16.40
5009;DHT22;2523;51.058;6.922;2023-06-24T12:24:01;30.60;15.90
5009;DHT22;2523;51.058;6.922;2023-06-24T12:26:26;30.60;16.20
5009;DHT22;2523;51.058;6.922;2023-06-24T12:28:55;29.70;15.70
5009;DHT22;2523;51.058;6.922;2023-06-24T12:31:22;30.10;16.40
5009;DHT22;2523;51.058;6.922;2023-06-24T12:33:47;30.40;17.70
5009;DHT22;2523;51.058;6.922;2023-06-24T12:36:13;29.90;16.70
5009;DHT22;2523;51.058;6.922;2023-06-24T12:38:38;30.20;17.60
5009;DHT22;2523;51.058;6.922;2023-06-24T12:41:04;30.10;16.50
5009;DHT22;2523;51.058;6.922;2023-06-24T12:43:30;30.30;17.90
5009;DHT22;2523;51.058;6.922;2023-06-24T12:45:55;30.90;16.50
5009;DHT22;2523;51.058;6.922;2023-06-24T12:48:21;30.90;15.90
5009;DHT22;2523;51.058;6.922;2023-06-24T12:50:47;30.80;17.50
5009;DHT22;2523;51.058;6.922;2023-06-24T12:53:14;30.80;18.20
5009;DHT22;2523;51.058;6.922;2023-06-24T12:55:41;31.10;15.40
5009;DHT22;2523;51.058;6.922;2023-06-24T12:58:07;31.10;14.90
5009;DHT22;2523;51.058;6.922;2023-06-24T13:00:32;30.70;16.00
5009;DHT22;2523;51.058;6.922;2023-06-24T13:02:58;30.80;16.80
5009;DHT22;2523;51.058;6.922;2023-06-24T13:05:23;30.90;17.70
5009;DHT22;2523;51.058;6.922;2023-06-24T13:07:50;31.00;16.80
5009;DHT22;2523;51.058;6.922;2023-06-24T13:10:15;30.90;18.00
5009;DHT22;2523;51.058;6.922;2023-06-24T13:12:41;30.70;16.20
5009;DHT22;2523;51.058;6.922;2023-06-24T13:15:07;30.80;16.20
5009;DHT22;2523;51.058;6.922;2023-06-24T13:17:34;30.90;14.30
5009;DHT22;2523;51.058;6.922;2023-06-24T13:20:00;30.60;13.40
5009;DHT22;2523;51.058;6.922;2023-06-24T13:22:28;30.90;15.70
5009;DHT22;2523;51.058;6.922;2023-06-24T13:24:53;31.00;15.10
5009;DHT22;2523;51.058;6.922;2023-06-24T13:27:19;30.90;14.90
5009;DHT22;2523;51.058;6.922;2023-06-24T13:29:44;30.80;14.60
5009;DHT22;2523;51.058;6.922;2023-06-24T13:32:10;30.90;15.40
5009;DHT22;2523;51.058;6.922;2023-06-24T13:34:36;30.60;16.30
5009;DHT22;2523;51.058;6.922;2023-06-24T13:37:01;30.70;15.10
5009;DHT22;2523;51.058;6.922;2023-06-24T13:39:27;30.80;15.70
5009;DHT22;2523;51.058;6.922;2023-06-24T13:41:53;30.60;13.00
5009;DHT22;2523;51.058;6.922;2023-06-24T13:44:19;30.80;12.30
5009;DHT22;2523;51.058;6.922;2023-06-24T13:46:45;31.10;14.30
5009;DHT22;2523;51.058;6.922;2023-06-24T13:49:11;31.20;14.50
5009;DHT22;2523;51.058;6.922;2023-06-24T13:51:37;31.00;12.60
5009;DHT22;2523;51.058;6.922;2023-06-24T13:54:03;30.90;13.10
5009;DHT22;2523;51.058;6.922;2023-06-24T13:56:29;30.70;14.00
5009;DHT22;2523;51.058;6.922;2023-06-24T13:58:55;30.80;13.70
5009;DHT22;2523;51.058;6.922;2023-06-24T14:01:21;31.10;13.10
5009;DHT22;2523;51.058;6.922;2023-06-24T14:03:47;31.30;12.40
5009;DHT22;2523;51.058;6.922;2023-06-24T14:06:15;31.20;13.50
5009;DHT22;2523;51.058;6.922;2023-06-24T14:08:41;31.20;13.70
5009;DHT22;2523;51.058;6.922;2023-06-24T14:11:06;31.00;12.80
5009;DHT22;2523;51.058;6.922;2023-06-24T14:13:32;30.90;10.50
5009;DHT22;2523;51.058;6.922;2023-06-24T14:15:58;31.00;10.40
5009;DHT22;2523;51.058;6.922;2023-06-24T14:18:23;30.90;11.60
5009;DHT22;2523;51.058;6.922;2023-06-24T14:20:50;30.90;11.40
5009;DHT22;2523;51.058;6.922;2023-06-24T14:23:16;30.90;11.30
5009;DHT22;2523;51.058;6.922;2023-06-24T14:25:42;30.80;12.00
5009;DHT22;2523;51.058;6.922;2023-06-24T14:28:07;30.70;11.50
5009;DHT22;2523;51.058;6.922;2023-06-24T14:30:33;31.00;10.70
5009;DHT22;2523;51.058;6.922;2023-06-24T14:33:00;30.80;11.00
5009;DHT22;2523;51.058;6.922;2023-06-24T14:35:25;30.80;11.10
5009;DHT22;2523;51.058;6.922;2023-06-24T14:37:51;30.90;11.10
5009;DHT22;2523;51.058;6.922;2023-06-24T14:40:17;30.80;9.20
5009;DHT22;2523;51.058;6.922;2023-06-24T14:42:42;31.10;9.80
5009;DHT22;2523;51.058;6.922;2023-06-24T14:45:08;31.20;9.30
5009;DHT22;2523;51.058;6.922;2023-06-24T14:47:34;31.40;8.20
5009;DHT22;2523;51.058;6.922;2023-06-24T14:50:00;31.10;10.30
5009;DHT22;2523;51.058;6.922;2023-06-24T14:52:25;31.20;8.90
5009;DHT22;2523;51.058;6.922;2023-06-24T14:54:51;30.80;9.20
5009;DHT22;2523;51.058;6.922;2023-06-24T14:57:16;30.90;10.70
5009;DHT22;2523;51.058;6.922;2023-06-24T14:59:42;31.10;9.20
5009;DHT22;2523;51.058;6.922;2023-06-24T15:02:08;31.20;9.90
5009;DHT22;2523;51.058;6.922;2023-06-24T15:04:35;31.10;10.50
5009;DHT22;2523;51.058;6.922;2023-06-24T15:07:01;31.20;9.50
5009;DHT22;2523;51.058;6.922;2023-06-24T15:09:26;31.10;10.40
5009;DHT22;2523;51.058;6.922;2023-06-24T15:11:52;31.10;9.50
5009;DHT22;2523;51.058;6.922;2023-06-24T15:14:18;30.90;10.30
5009;DHT22;2523;51.058;6.922;2023-06-24T15:16:43;30.70;10.10
5009;DHT22;2523;51.058;6.922;2023-06-24T15:19:09;30.50;10.90
5009;DHT22;2523;51.058;6.922;2023-06-24T15:21:34;30.40;10.60
5009;DHT22;2523;51.058;6.922;2023-06-24T15:24:00;30.30;10.20
5009;DHT22;2523;51.058;6.922;2023-06-24T15:26:25;30.00;9.80
5009;DHT22;2523;51.058;6.922;2023-06-24T15:28:51;29.90;7.70
5009;DHT22;2523;51.058;6.922;2023-06-24T15:31:16;30.10;7.90
5009;DHT22;2523;51.058;6.922;2023-06-24T15:33:42;30.10;6.80
5009;DHT22;2523;51.058;6.922;2023-06-24T15:36:07;29.90;8.10
5009;DHT22;2523;51.058;6.922;2023-06-24T15:38:34;29.90;8.00
5009;DHT22;2523;51.058;6.922;2023-06-24T15:40:59;29.80;8.90
5009;DHT22;2523;51.058;6.922;2023-06-24T15:43:25;29.80;9.30
5009;DHT22;2523;51.058;6.922;2023-06-24T15:45:50;29.70;8.60
5009;DHT22;2523;51.058;6.922;2023-06-24T15:48:16;29.70;7.60
5009;DHT22;2523;51.058;6.922;2023-06-24T15:50:41;29.60;9.30
5009;DHT22;2523;51.058;6.922;2023-06-24T15:53:07;29.50;9.90
5009;DHT22;2523;51.058;6.922;2023-06-24T15:55:32;29.40;8.60
5009;DHT22;2523;51.058;6.922;2023-06-24T15:57:58;29.10;9.50
5009;DHT22;2523;51.058;6.922;2023-06-24T16:00:24;29.00;7.80
5009;DHT22;2523;51.058;6.922;2023-06-24T16:02:49;29.00;9.10
5009;DHT22;2523;51.058;6.922;2023-06-24T16:05:15;28.90;8.70
5009;DHT22;2523;51.058;6.922;2023-06-24T16:07:40;28.80;8.70
5009;DHT22;2523;51.058;6.922;2023-06-24T16:10:06;28.70;8.90
5009;DHT22;2523;51.058;6.922;2023-06-24T16:12:32;28.70;9.50
5009;DHT22;2523;51.058;6.922;2023-06-24T16:14:57;28.70;8.10
5009;DHT22;2523;51.058;6.922;2023-06-24T16:17:23;28.60;6.50
5009;DHT22;2523;51.058;6.922;2023-06-24T16:19:48;28.60;6.30